sensor_id;sensor_type;location;lat;lon;timestamp;P1;durP1;ratioP1;P2;durP2;ratioP2
5125;SDS011;63008;53.112;8.896;2023-04-01T00:01:54;16.17;;;10.70;;
5125;SDS011;63008;53.112;8.896;2023-04-01T00:03:55;17.53;;;11.00;;
5125;SDS011;63008;53.112;8.896;2023-04-01T00:05:57;20.27;;;11.23;;
5125;SDS011;63008;53.112;8.896;2023-04-01T00:07:59;17.73;;;10.50;;
5125;SDS011;63008;53.112;8.896;2023-04-01T00:10:01;13.43;;;9.97;;
5125;SDS011;63008;53.112;8.896;2023-04-01T00:12:02;15.37;;;10.60;;
5125;SDS011;63008;53.112;8.896;2023-04-01T00:14:04;16.63;;;10.83;;
5125;SDS011;63008;53.112;8.896;2023-04-01T00:16:05;15.23;;;10.37;;
5125;SDS011;63008;53.112;8.896;2023-04-01T00:18:07;16.00;;;10.47;;
5125;SDS011;63008;53.112;8.896;2023-04-01T00:20:09;22.13;;;11.77;;
5125;SDS011;63008;53.112;8.896;2023-04-01T00:22:10;18.80;;;11.60;;
5125;SDS011;63008;53.112;8.896;2023-04-01T00:24:12;16.63;;;11.00;;
5125;SDS011;63008;53.112;8.896;2023-04-01T00:26:13;16.47;;;11.07;;
5125;SDS011;63008;53.112;8.896;2023-04-01T00:28:16;16.20;;;11.67;;
5125;SDS011;63008;53.112;8.896;2023-04-01T00:30:18;16.07;;;10.07;;
5125;SDS011;63008;53.112;8.896;2023-04-01T00:32:19;13.10;;;10.17;;
5125;SDS011;63008;53.112;8.896;2023-04-01T00:34:20;12.67;;;10.23;;
5125;SDS011;63008;53.112;8.896;2023-04-01T00:36:21;13.97;;;11.27;;
5125;SDS011;63008;53.112;8.896;2023-04-01T00:38:23;16.13;;;11.53;;
5125;SDS011;63008;53.112;8.896;2023-04-01T00:40:28;14.43;;;10.43;;
5125;SDS011;63008;53.112;8.896;2023-04-01T00:42:31;17.60;;;11.67;;
5125;SDS011;63008;53.112;8.896;2023-04-01T00:44:33;16.30;;;11.50;;
5125;SDS011;63008;53.112;8.896;2023-04-01T00:46:35;23.40;;;11.90;;
5125;SDS011;63008;53.112;8.896;2023-04-01T00:51:11;13.13;;;10.67;;
5125;SDS011;63008;53.112;8.896;2023-04-01T00:53:16;17.80;;;12.20;;
5125;SDS011;63008;53.112;8.896;2023-04-01T00:55:20;15.80;;;11.87;;
5125;SDS011;63008;53.112;8.896;2023-04-01T00:57:25;14.87;;;11.60;;
5125;SDS011;63008;53.112;8.896;2023-04-01T00:59:36;17.23;;;11.70;;
5125;SDS011;63008;53.112;8.896;2023-04-01T01:01:50;15.50;;;10.80;;
5125;SDS011;63008;53.112;8.896;2023-04-01T01:03:51;13.43;;;11.13;;
5125;SDS011;63008;53.112;8.896;2023-04-01T01:06:02;15.10;;;10.67;;
5125;SDS011;63008;53.112;8.896;2023-04-01T01:08:25;17.13;;;10.77;;
5125;SDS011;63008;53.112;8.896;2023-04-01T01:10:48;13.70;;;10.50;;
5125;SDS011;63008;53.112;8.896;2023-04-01T01:15:31;16.90;;;12.20;;
5125;SDS011;63008;53.112;8.896;2023-04-01T01:17:51;20.43;;;11.73;;
5125;SDS011;63008;53.112;8.896;2023-04-01T01:22:36;21.30;;;11.97;;
5125;SDS011;63008;53.112;8.896;2023-04-01T01:24:54;14.23;;;11.57;;
5125;SDS011;63008;53.112;8.896;2023-04-01T01:27:11;18.47;;;11.97;;
5125;SDS011;63008;53.112;8.896;2023-04-01T01:31:44;14.93;;;10.40;;
5125;SDS011;63008;53.112;8.896;2023-04-01T01:34:06;14.13;;;11.60;;
5125;SDS011;63008;53.112;8.896;2023-04-01T01:36:09;14.57;;;10.53;;
5125;SDS011;63008;53.112;8.896;2023-04-01T01:38:15;14.47;;;10.40;;
5125;SDS011;63008;53.112;8.896;2023-04-01T01:40:19;20.27;;;11.00;;
5125;SDS011;63008;53.112;8.896;2023-04-01T01:42:22;15.80;;;10.83;;
5125;SDS011;63008;53.112;8.896;2023-04-01T01:44:26;13.50;;;10.30;;
5125;SDS011;63008;53.112;8.896;2023-04-01T01:46:30;13.77;;;10.67;;
5125;SDS011;63008;53.112;8.896;2023-04-01T01:48:32;16.67;;;10.53;;
5125;SDS011;63008;53.112;8.896;2023-04-01T01:50:34;13.97;;;11.20;;
5125;SDS011;63008;53.112;8.896;2023-04-01T01:52:36;13.30;;;10.73;;
5125;SDS011;63008;53.112;8.896;2023-04-01T01:54:46;15.87;;;10.83;;
5125;SDS011;63008;53.112;8.896;2023-04-01T01:56:52;12.13;;;10.23;;
5125;SDS011;63008;53.112;8.896;2023-04-01T01:59:06;15.17;;;10.03;;
5125;SDS011;63008;53.112;8.896;2023-04-01T02:01:13;15.90;;;9.47;;
5125;SDS011;63008;53.112;8.896;2023-04-01T02:03:17;12.30;;;10.17;;
5125;SDS011;63008;53.112;8.896;2023-04-01T02:05:23;16.33;;;10.10;;
5125;SDS011;63008;53.112;8.896;2023-04-01T02:07:27;12.00;;;10.53;;
5125;SDS011;63008;53.112;8.896;2023-04-01T02:09:33;12.87;;;9.73;;
5125;SDS011;63008;53.112;8.896;2023-04-01T02:11:39;14.63;;;10.30;;
5125;SDS011;63008;53.112;8.896;2023-04-01T02:14:04;11.63;;;10.10;;
5125;SDS011;63008;53.112;8.896;2023-04-01T02:16:38;11.00;;;9.80;;
5125;SDS011;63008;53.112;8.896;2023-04-01T02:18:44;15.80;;;9.77;;
5125;SDS011;63008;53.112;8.896;2023-04-01T02:20:49;12.70;;;11.03;;
5125;SDS011;63008;53.112;8.896;2023-04-01T02:22:51;13.37;;;10.00;;
5125;SDS011;63008;53.112;8.896;2023-04-01T02:25:00;12.30;;;11.10;;
5125;SDS011;63008;53.112;8.896;2023-04-01T02:27:08;11.20;;;10.13;;
5125;SDS011;63008;53.112;8.896;2023-04-01T02:29:11;14.20;;;10.73;;
5125;SDS011;63008;53.112;8.896;2023-04-01T02:31:12;14.37;;;11.03;;
5125;SDS011;63008;53.112;8.896;2023-04-01T02:33:15;12.30;;;11.00;;
5125;SDS011;63008;53.112;8.896;2023-04-01T02:35:16;14.33;;;10.40;;
5125;SDS011;63008;53.112;8.896;2023-04-01T02:37:18;14.50;;;11.20;;
5125;SDS011;63008;53.112;8.896;2023-04-01T02:39:19;11.50;;;10.30;;
5125;SDS011;63008;53.112;8.896;2023-04-01T02:41:20;12.67;;;11.00;;
5125;SDS011;63008;53.112;8.896;2023-04-01T02:43:21;15.70;;;11.20;;
5125;SDS011;63008;53.112;8.896;2023-04-01T02:45:24;14.57;;;11.17;;
5125;SDS011;63008;53.112;8.896;2023-04-01T02:47:27;13.30;;;11.50;;
5125;SDS011;63008;53.112;8.896;2023-04-01T02:49:28;12.60;;;11.40;;
5125;SDS011;63008;53.112;8.896;2023-04-01T02:51:29;12.80;;;11.40;;
5125;SDS011;63008;53.112;8.896;2023-04-01T02:53:30;14.00;;;11.43;;
5125;SDS011;63008;53.112;8.896;2023-04-01T02:55:32;15.93;;;12.30;;
5125;SDS011;63008;53.112;8.896;2023-04-01T02:57:34;12.40;;;10.90;;
5125;SDS011;63008;53.112;8.896;2023-04-01T02:59:35;14.47;;;12.00;;
5125;SDS011;63008;53.112;8.896;2023-04-01T03:01:36;17.90;;;12.00;;
5125;SDS011;63008;53.112;8.896;2023-04-01T03:03:37;16.83;;;12.30;;
5125;SDS011;63008;53.112;8.896;2023-04-01T03:05:38;12.33;;;10.30;;
5125;SDS011;63008;53.112;8.896;2023-04-01T03:07:38;12.50;;;11.17;;
5125;SDS011;63008;53.112;8.896;2023-04-01T03:09:39;16.50;;;12.30;;
5125;SDS011;63008;53.112;8.896;2023-04-01T03:11:41;14.67;;;10.90;;
5125;SDS011;63008;53.112;8.896;2023-04-01T03:13:42;13.43;;;10.47;;
5125;SDS011;63008;53.112;8.896;2023-04-01T03:15:43;14.50;;;10.23;;
5125;SDS011;63008;53.112;8.896;2023-04-01T03:17:44;12.03;;;10.70;;
5125;SDS011;63008;53.112;8.896;2023-04-01T03:19:45;12.93;;;10.43;;
5125;SDS011;63008;53.112;8.896;2023-04-01T03:21:46;10.67;;;9.57;;
5125;SDS011;63008;53.112;8.896;2023-04-01T03:23:47;13.70;;;11.50;;
5125;SDS011;63008;53.112;8.896;2023-04-01T03:25:48;13.13;;;10.50;;
5125;SDS011;63008;53.112;8.896;2023-04-01T03:27:49;13.27;;;10.77;;
5125;SDS011;63008;53.112;8.896;2023-04-01T03:29:50;11.80;;;10.60;;
5125;SDS011;63008;53.112;8.896;2023-04-01T03:31:51;13.60;;;9.63;;
5125;SDS011;63008;53.112;8.896;2023-04-01T03:33:52;10.90;;;9.80;;
5125;SDS011;63008;53.112;8.896;2023-04-01T03:35:53;13.67;;;9.63;;
5125;SDS011;63008;53.112;8.896;2023-04-01T03:37:54;13.60;;;9.80;;
5125;SDS011;63008;53.112;8.896;2023-04-01T03:39:56;11.70;;;9.80;;
5125;SDS011;63008;53.112;8.896;2023-04-01T03:41:57;12.90;;;11.07;;
5125;SDS011;63008;53.112;8.896;2023-04-01T03:43:58;12.57;;;10.60;;
5125;SDS011;63008;53.112;8.896;2023-04-01T03:45:58;14.00;;;10.53;;
5125;SDS011;63008;53.112;8.896;2023-04-01T03:47:59;13.50;;;9.87;;
5125;SDS011;63008;53.112;8.896;2023-04-01T03:50:01;12.30;;;10.20;;
5125;SDS011;63008;53.112;8.896;2023-04-01T03:52:10;12.67;;;10.30;;
5125;SDS011;63008;53.112;8.896;2023-04-01T03:54:11;12.00;;;10.37;;
5125;SDS011;63008;53.112;8.896;2023-04-01T03:56:12;12.03;;;10.33;;
5125;SDS011;63008;53.112;8.896;2023-04-01T03:58:13;15.30;;;10.57;;
5125;SDS011;63008;53.112;8.896;2023-04-01T04:00:14;14.70;;;10.47;;
5125;SDS011;63008;53.112;8.896;2023-04-01T04:02:16;14.53;;;10.60;;
5125;SDS011;63008;53.112;8.896;2023-04-01T04:04:17;10.33;;;9.30;;
5125;SDS011;63008;53.112;8.896;2023-04-01T04:06:18;16.13;;;9.50;;
5125;SDS011;63008;53.112;8.896;2023-04-01T04:08:19;11.93;;;10.50;;
5125;SDS011;63008;53.112;8.896;2023-04-01T04:10:22;12.43;;;9.77;;
5125;SDS011;63008;53.112;8.896;2023-04-01T04:12:23;11.17;;;9.40;;
5125;SDS011;63008;53.112;8.896;2023-04-01T04:14:24;13.07;;;9.83;;
5125;SDS011;63008;53.112;8.896;2023-04-01T04:16:25;12.93;;;9.63;;
5125;SDS011;63008;53.112;8.896;2023-04-01T04:18:26;10.50;;;9.40;;
5125;SDS011;63008;53.112;8.896;2023-04-01T04:20:27;14.23;;;10.23;;
5125;SDS011;63008;53.112;8.896;2023-04-01T04:22:28;14.43;;;9.67;;
5125;SDS011;63008;53.112;8.896;2023-04-01T04:24:29;10.10;;;9.00;;
5125;SDS011;63008;53.112;8.896;2023-04-01T04:26:30;17.60;;;9.10;;
5125;SDS011;63008;53.112;8.896;2023-04-01T04:28:31;12.23;;;9.20;;
5125;SDS011;63008;53.112;8.896;2023-04-01T04:30:33;13.83;;;9.00;;
5125;SDS011;63008;53.112;8.896;2023-04-01T04:32:34;13.83;;;10.00;;
5125;SDS011;63008;53.112;8.896;2023-04-01T04:34:36;10.30;;;9.00;;
5125;SDS011;63008;53.112;8.896;2023-04-01T04:36:36;10.50;;;8.93;;
5125;SDS011;63008;53.112;8.896;2023-04-01T04:38:37;11.50;;;9.33;;
5125;SDS011;63008;53.112;8.896;2023-04-01T04:40:39;15.10;;;9.23;;
5125;SDS011;63008;53.112;8.896;2023-04-01T04:42:41;11.33;;;9.00;;
5125;SDS011;63008;53.112;8.896;2023-04-01T04:44:42;9.67;;;8.57;;
5125;SDS011;63008;53.112;8.896;2023-04-01T04:46:43;11.47;;;8.93;;
5125;SDS011;63008;53.112;8.896;2023-04-01T04:48:44;10.33;;;8.73;;
5125;SDS011;63008;53.112;8.896;2023-04-01T04:50:48;10.37;;;8.00;;
5125;SDS011;63008;53.112;8.896;2023-04-01T04:52:51;10.30;;;8.40;;
5125;SDS011;63008;53.112;8.896;2023-04-01T04:54:52;12.20;;;7.97;;
5125;SDS011;63008;53.112;8.896;2023-04-01T04:56:56;12.33;;;8.70;;
5125;SDS011;63008;53.112;8.896;2023-04-01T04:58:57;9.00;;;8.10;;
5125;SDS011;63008;53.112;8.896;2023-04-01T05:01:04;11.27;;;8.90;;
5125;SDS011;63008;53.112;8.896;2023-04-01T05:03:07;10.17;;;8.70;;
5125;SDS011;63008;53.112;8.896;2023-04-01T05:05:08;14.80;;;8.77;;
5125;SDS011;63008;53.112;8.896;2023-04-01T05:07:09;11.70;;;9.73;;
5125;SDS011;63008;53.112;8.896;2023-04-01T05:09:11;13.40;;;9.70;;
5125;SDS011;63008;53.112;8.896;2023-04-01T05:11:13;13.80;;;9.80;;
5125;SDS011;63008;53.112;8.896;2023-04-01T05:13:16;10.70;;;8.33;;
5125;SDS011;63008;53.112;8.896;2023-04-01T05:15:17;10.20;;;8.43;;
5125;SDS011;63008;53.112;8.896;2023-04-01T05:17:18;13.23;;;10.40;;
5125;SDS011;63008;53.112;8.896;2023-04-01T05:19:19;12.83;;;8.80;;
5125;SDS011;63008;53.112;8.896;2023-04-01T05:21:21;14.57;;;8.20;;
5125;SDS011;63008;53.112;8.896;2023-04-01T05:23:22;14.50;;;9.70;;
5125;SDS011;63008;53.112;8.896;2023-04-01T05:25:23;10.00;;;8.60;;
5125;SDS011;63008;53.112;8.896;2023-04-01T05:27:27;12.70;;;9.50;;
5125;SDS011;63008;53.112;8.896;2023-04-01T05:29:28;15.50;;;9.00;;
5125;SDS011;63008;53.112;8.896;2023-04-01T05:31:29;9.50;;;8.60;;
5125;SDS011;63008;53.112;8.896;2023-04-01T05:33:30;12.43;;;8.87;;
5125;SDS011;63008;53.112;8.896;2023-04-01T05:35:31;8.70;;;7.80;;
5125;SDS011;63008;53.112;8.896;2023-04-01T05:37:35;13.73;;;8.23;;
5125;SDS011;63008;53.112;8.896;2023-04-01T05:39:37;10.13;;;8.30;;
5125;SDS011;63008;53.112;8.896;2023-04-01T05:41:39;11.27;;;7.60;;
5125;SDS011;63008;53.112;8.896;2023-04-01T05:43:40;13.20;;;7.97;;
5125;SDS011;63008;53.112;8.896;2023-04-01T05:45:42;9.83;;;8.17;;
5125;SDS011;63008;53.112;8.896;2023-04-01T05:47:43;9.33;;;7.43;;
5125;SDS011;63008;53.112;8.896;2023-04-01T05:49:44;8.00;;;7.20;;
5125;SDS011;63008;53.112;8.896;2023-04-01T05:51:45;15.93;;;7.30;;
5125;SDS011;63008;53.112;8.896;2023-04-01T05:53:46;7.70;;;7.00;;
5125;SDS011;63008;53.112;8.896;2023-04-01T05:55:47;7.67;;;6.97;;
5125;SDS011;63008;53.112;8.896;2023-04-01T05:57:48;9.63;;;6.87;;
5125;SDS011;63008;53.112;8.896;2023-04-01T05:59:49;13.77;;;7.50;;
5125;SDS011;63008;53.112;8.896;2023-04-01T06:01:51;6.67;;;6.17;;
5125;SDS011;63008;53.112;8.896;2023-04-01T06:03:52;7.90;;;6.70;;
5125;SDS011;63008;53.112;8.896;2023-04-01T06:05:53;8.67;;;6.87;;
5125;SDS011;63008;53.112;8.896;2023-04-01T06:08:02;6.53;;;6.03;;
5125;SDS011;63008;53.112;8.896;2023-04-01T06:10:20;6.97;;;6.20;;
5125;SDS011;63008;53.112;8.896;2023-04-01T06:12:25;7.07;;;6.27;;
5125;SDS011;63008;53.112;8.896;2023-04-01T06:22:22;6.13;;;5.00;;
5125;SDS011;63008;53.112;8.896;2023-04-01T06:24:41;5.80;;;5.30;;
5125;SDS011;63008;53.112;8.896;2023-04-01T06:27:10;4.87;;;4.10;;
5125;SDS011;63008;53.112;8.896;2023-04-01T06:35:58;6.17;;;5.47;;
5125;SDS011;63008;53.112;8.896;2023-04-01T06:38:30;5.37;;;4.83;;
5125;SDS011;63008;53.112;8.896;2023-04-01T06:43:12;7.00;;;5.00;;
5125;SDS011;63008;53.112;8.896;2023-04-01T06:45:26;10.00;;;6.03;;
5125;SDS011;63008;53.112;8.896;2023-04-01T06:52:23;5.47;;;4.93;;
5125;SDS011;63008;53.112;8.896;2023-04-01T06:54:35;5.40;;;4.90;;
5125;SDS011;63008;53.112;8.896;2023-04-01T06:56:40;4.73;;;4.43;;
5125;SDS011;63008;53.112;8.896;2023-04-01T06:58:46;6.20;;;4.90;;
5125;SDS011;63008;53.112;8.896;2023-04-01T07:00:54;6.93;;;5.50;;
5125;SDS011;63008;53.112;8.896;2023-04-01T07:05:30;5.60;;;5.30;;
5125;SDS011;63008;53.112;8.896;2023-04-01T07:07:46;4.90;;;4.50;;
5125;SDS011;63008;53.112;8.896;2023-04-01T07:09:51;7.93;;;4.50;;
5125;SDS011;63008;53.112;8.896;2023-04-01T07:11:59;11.57;;;4.60;;
5125;SDS011;63008;53.112;8.896;2023-04-01T07:18:37;3.53;;;3.27;;
5125;SDS011;63008;53.112;8.896;2023-04-01T07:20:44;7.10;;;3.63;;
5125;SDS011;63008;53.112;8.896;2023-04-01T07:22:48;3.20;;;3.00;;
5125;SDS011;63008;53.112;8.896;2023-04-01T07:24:52;6.53;;;3.47;;
5125;SDS011;63008;53.112;8.896;2023-04-01T07:26:55;3.50;;;3.30;;
5125;SDS011;63008;53.112;8.896;2023-04-01T07:28:57;6.07;;;3.90;;
5125;SDS011;63008;53.112;8.896;2023-04-01T07:31:12;3.60;;;3.37;;
5125;SDS011;63008;53.112;8.896;2023-04-01T07:33:39;3.10;;;2.90;;
5125;SDS011;63008;53.112;8.896;2023-04-01T07:35:52;4.27;;;3.87;;
5125;SDS011;63008;53.112;8.896;2023-04-01T07:38:05;5.90;;;3.00;;
5125;SDS011;63008;53.112;8.896;2023-04-01T07:40:37;4.93;;;3.10;;
5125;SDS011;63008;53.112;8.896;2023-04-01T07:47:51;4.47;;;2.53;;
5125;SDS011;63008;53.112;8.896;2023-04-01T07:52:29;3.23;;;2.90;;
5125;SDS011;63008;53.112;8.896;2023-04-01T07:57:08;2.37;;;2.27;;
5125;SDS011;63008;53.112;8.896;2023-04-01T08:04:15;3.10;;;2.90;;
5125;SDS011;63008;53.112;8.896;2023-04-01T08:06:41;2.13;;;2.03;;
5125;SDS011;63008;53.112;8.896;2023-04-01T08:09:04;2.70;;;2.50;;
5125;SDS011;63008;53.112;8.896;2023-04-01T08:13:35;2.30;;;1.90;;
5125;SDS011;63008;53.112;8.896;2023-04-01T08:16:35;3.17;;;1.93;;
5125;SDS011;63008;53.112;8.896;2023-04-01T08:18:38;2.00;;;1.90;;
5125;SDS011;63008;53.112;8.896;2023-04-01T08:21:05;4.30;;;2.43;;
5125;SDS011;63008;53.112;8.896;2023-04-01T08:23:17;2.40;;;2.20;;
5125;SDS011;63008;53.112;8.896;2023-04-01T08:25:24;2.27;;;2.17;;
5125;SDS011;63008;53.112;8.896;2023-04-01T08:27:37;2.30;;;2.20;;
5125;SDS011;63008;53.112;8.896;2023-04-01T08:29:46;2.27;;;2.00;;
5125;SDS011;63008;53.112;8.896;2023-04-01T08:34:04;4.63;;;1.93;;
5125;SDS011;63008;53.112;8.896;2023-04-01T08:36:18;3.13;;;2.33;;
5125;SDS011;63008;53.112;8.896;2023-04-01T08:38:30;1.90;;;1.70;;
5125;SDS011;63008;53.112;8.896;2023-04-01T08:45:21;2.87;;;2.67;;
5125;SDS011;63008;53.112;8.896;2023-04-01T08:47:39;2.00;;;1.90;;
5125;SDS011;63008;53.112;8.896;2023-04-01T08:56:50;2.50;;;1.50;;
5125;SDS011;63008;53.112;8.896;2023-04-01T08:59:14;1.57;;;1.47;;
5125;SDS011;63008;53.112;8.896;2023-04-01T09:11:57;1.40;;;1.40;;
5125;SDS011;63008;53.112;8.896;2023-04-01T09:14:07;7.53;;;1.87;;
5125;SDS011;63008;53.112;8.896;2023-04-01T09:19:06;1.33;;;1.10;;
5125;SDS011;63008;53.112;8.896;2023-04-01T09:23:38;2.80;;;1.20;;
5125;SDS011;63008;53.112;8.896;2023-04-01T09:28:03;1.63;;;1.53;;
5125;SDS011;63008;53.112;8.896;2023-04-01T09:30:28;2.40;;;1.50;;
5125;SDS011;63008;53.112;8.896;2023-04-01T09:32:53;1.20;;;1.13;;
5125;SDS011;63008;53.112;8.896;2023-04-01T09:37:31;2.20;;;1.60;;
5125;SDS011;63008;53.112;8.896;2023-04-01T09:39:47;1.80;;;1.30;;
5125;SDS011;63008;53.112;8.896;2023-04-01T09:44:48;1.50;;;1.40;;
5125;SDS011;63008;53.112;8.896;2023-04-01T09:56:19;1.57;;;1.40;;
5125;SDS011;63008;53.112;8.896;2023-04-01T09:58:45;2.00;;;1.70;;
5125;SDS011;63008;53.112;8.896;2023-04-01T10:01:01;2.30;;;2.00;;
5125;SDS011;63008;53.112;8.896;2023-04-01T10:05:59;0.90;;;0.80;;
5125;SDS011;63008;53.112;8.896;2023-04-01T10:13:46;1.57;;;0.40;;
5125;SDS011;63008;53.112;8.896;2023-04-01T10:16:12;0.87;;;0.70;;
5125;SDS011;63008;53.112;8.896;2023-04-01T10:20:42;2.20;;;0.43;;
5125;SDS011;63008;53.112;8.896;2023-04-01T10:25:18;0.60;;;0.60;;
5125;SDS011;63008;53.112;8.896;2023-04-01T10:27:31;0.40;;;0.40;;
5125;SDS011;63008;53.112;8.896;2023-04-01T10:38:49;0.97;;;0.40;;
5125;SDS011;63008;53.112;8.896;2023-04-01T10:48:12;0.50;;;0.50;;
5125;SDS011;63008;53.112;8.896;2023-04-01T10:52:32;0.50;;;0.50;;
5125;SDS011;63008;53.112;8.896;2023-04-01T10:59:45;0.50;;;0.50;;
5125;SDS011;63008;53.112;8.896;2023-04-01T11:02:01;1.33;;;0.60;;
5125;SDS011;63008;53.112;8.896;2023-04-01T11:07:11;0.60;;;0.60;;
5125;SDS011;63008;53.112;8.896;2023-04-01T11:09:30;1.17;;;0.60;;
5125;SDS011;63008;53.112;8.896;2023-04-01T11:24:13;0.60;;;0.60;;
5125;SDS011;63008;53.112;8.896;2023-04-01T11:26:39;0.70;;;0.70;;
5125;SDS011;63008;53.112;8.896;2023-04-01T11:31:34;0.97;;;0.70;;
5125;SDS011;63008;53.112;8.896;2023-04-01T11:40:47;1.03;;;0.90;;
5125;SDS011;63008;53.112;8.896;2023-04-01T11:47:44;1.17;;;0.90;;
5125;SDS011;63008;53.112;8.896;2023-04-01T11:50:03;0.70;;;0.70;;
5125;SDS011;63008;53.112;8.896;2023-04-01T11:52:39;0.73;;;0.73;;
5125;SDS011;63008;53.112;8.896;2023-04-01T11:55:01;3.37;;;0.93;;
5125;SDS011;63008;53.112;8.896;2023-04-01T12:06:49;1.30;;;0.87;;
5125;SDS011;63008;53.112;8.896;2023-04-01T12:09:18;0.80;;;0.80;;
5125;SDS011;63008;53.112;8.896;2023-04-01T12:13:42;0.90;;;0.87;;
5125;SDS011;63008;53.112;8.896;2023-04-01T12:18:38;1.20;;;1.10;;
5125;SDS011;63008;53.112;8.896;2023-04-01T12:20:44;0.90;;;0.90;;
5125;SDS011;63008;53.112;8.896;2023-04-01T12:23:08;0.90;;;0.90;;
5125;SDS011;63008;53.112;8.896;2023-04-01T12:25:35;1.00;;;0.90;;
5125;SDS011;63008;53.112;8.896;2023-04-01T12:27:53;0.90;;;0.90;;
5125;SDS011;63008;53.112;8.896;2023-04-01T12:32:55;1.37;;;0.93;;
5125;SDS011;63008;53.112;8.896;2023-04-01T12:35:23;1.27;;;0.90;;
5125;SDS011;63008;53.112;8.896;2023-04-01T12:37:34;0.63;;;0.63;;
5125;SDS011;63008;53.112;8.896;2023-04-01T12:44:47;0.57;;;0.57;;
5125;SDS011;63008;53.112;8.896;2023-04-01T12:47:17;0.73;;;0.73;;
5125;SDS011;63008;53.112;8.896;2023-04-01T12:49:49;0.70;;;0.70;;
5125;SDS011;63008;53.112;8.896;2023-04-01T12:59:24;0.70;;;0.70;;
5125;SDS011;63008;53.112;8.896;2023-04-01T13:16:07;0.80;;;0.60;;
5125;SDS011;63008;53.112;8.896;2023-04-01T13:18:30;0.60;;;0.60;;
5125;SDS011;63008;53.112;8.896;2023-04-01T13:20:43;1.13;;;0.57;;
5125;SDS011;63008;53.112;8.896;2023-04-01T13:22:52;0.50;;;0.50;;
5125;SDS011;63008;53.112;8.896;2023-04-01T13:25:22;0.60;;;0.60;;
5125;SDS011;63008;53.112;8.896;2023-04-01T13:27:44;2.33;;;0.70;;
5125;SDS011;63008;53.112;8.896;2023-04-01T13:29:57;0.60;;;0.60;;
5125;SDS011;63008;53.112;8.896;2023-04-01T13:32:18;0.73;;;0.73;;
5125;SDS011;63008;53.112;8.896;2023-04-01T13:36:52;1.07;;;0.47;;
5125;SDS011;63008;53.112;8.896;2023-04-01T13:54:33;0.50;;;0.50;;
5125;SDS011;63008;53.112;8.896;2023-04-01T13:57:14;1.63;;;0.60;;
5125;SDS011;63008;53.112;8.896;2023-04-01T14:02:03;1.10;;;0.67;;
5125;SDS011;63008;53.112;8.896;2023-04-01T14:04:40;1.83;;;1.00;;
5125;SDS011;63008;53.112;8.896;2023-04-01T14:09:10;1.23;;;1.03;;
5125;SDS011;63008;53.112;8.896;2023-04-01T14:11:33;0.70;;;0.70;;
5125;SDS011;63008;53.112;8.896;2023-04-01T14:22:10;0.90;;;0.77;;
5125;SDS011;63008;53.112;8.896;2023-04-01T14:23:52;1.37;;;1.10;;
5125;SDS011;63008;53.112;8.896;2023-04-01T14:26:20;1.43;;;1.33;;
5125;SDS011;63008;53.112;8.896;2023-04-01T14:30:50;2.07;;;1.97;;
5125;SDS011;63008;53.112;8.896;2023-04-01T14:33:21;1.70;;;1.60;;
5125;SDS011;63008;53.112;8.896;2023-04-01T14:35:39;2.20;;;2.10;;
5125;SDS011;63008;53.112;8.896;2023-04-01T14:40:19;2.20;;;2.10;;
5125;SDS011;63008;53.112;8.896;2023-04-01T14:49:50;2.47;;;2.27;;
5125;SDS011;63008;53.112;8.896;2023-04-01T14:51:54;2.80;;;2.43;;
5125;SDS011;63008;53.112;8.896;2023-04-01T14:54:00;2.57;;;2.40;;
5125;SDS011;63008;53.112;8.896;2023-04-01T14:56:39;2.10;;;2.00;;
5125;SDS011;63008;53.112;8.896;2023-04-01T14:58:50;2.60;;;2.50;;
5125;SDS011;63008;53.112;8.896;2023-04-01T15:01:00;4.30;;;2.30;;
5125;SDS011;63008;53.112;8.896;2023-04-01T15:03:11;5.80;;;3.47;;
5125;SDS011;63008;53.112;8.896;2023-04-01T15:05:39;3.33;;;2.83;;
5125;SDS011;63008;53.112;8.896;2023-04-01T15:07:55;4.47;;;3.17;;
5125;SDS011;63008;53.112;8.896;2023-04-01T15:10:06;3.70;;;3.20;;
5125;SDS011;63008;53.112;8.896;2023-04-01T15:12:42;5.13;;;3.03;;
5125;SDS011;63008;53.112;8.896;2023-04-01T15:15:45;6.10;;;2.50;;
5125;SDS011;63008;53.112;8.896;2023-04-01T15:19:48;2.87;;;2.47;;
5125;SDS011;63008;53.112;8.896;2023-04-01T15:24:46;2.73;;;2.50;;
5125;SDS011;63008;53.112;8.896;2023-04-01T15:31:53;2.90;;;2.60;;
5125;SDS011;63008;53.112;8.896;2023-04-01T15:36:40;2.67;;;2.47;;
5125;SDS011;63008;53.112;8.896;2023-04-01T15:41:23;2.90;;;2.70;;
5125;SDS011;63008;53.112;8.896;2023-04-01T15:45:47;4.93;;;2.60;;
5125;SDS011;63008;53.112;8.896;2023-04-01T15:48:10;8.53;;;2.50;;
5125;SDS011;63008;53.112;8.896;2023-04-01T15:55:41;4.20;;;2.80;;
5125;SDS011;63008;53.112;8.896;2023-04-01T16:00:42;4.60;;;2.50;;
5125;SDS011;63008;53.112;8.896;2023-04-01T16:03:08;2.30;;;2.17;;
5125;SDS011;63008;53.112;8.896;2023-04-01T16:07:43;3.83;;;1.93;;
5125;SDS011;63008;53.112;8.896;2023-04-01T16:10:31;4.20;;;1.80;;
5125;SDS011;63008;53.112;8.896;2023-04-01T16:12:41;3.13;;;2.73;;
5125;SDS011;63008;53.112;8.896;2023-04-01T16:15:06;2.40;;;2.20;;
5125;SDS011;63008;53.112;8.896;2023-04-01T16:20:19;3.43;;;2.40;;
5125;SDS011;63008;53.112;8.896;2023-04-01T16:22:38;3.10;;;2.30;;
5125;SDS011;63008;53.112;8.896;2023-04-01T16:25:07;2.70;;;2.40;;
5125;SDS011;63008;53.112;8.896;2023-04-01T16:27:25;4.37;;;2.30;;
5125;SDS011;63008;53.112;8.896;2023-04-01T16:29:38;3.10;;;2.33;;
5125;SDS011;63008;53.112;8.896;2023-04-01T16:31:49;2.93;;;2.23;;
5125;SDS011;63008;53.112;8.896;2023-04-01T16:34:01;2.97;;;2.77;;
5125;SDS011;63008;53.112;8.896;2023-04-01T16:36:24;2.90;;;2.33;;
5125;SDS011;63008;53.112;8.896;2023-04-01T16:38:38;2.17;;;2.03;;
5125;SDS011;63008;53.112;8.896;2023-04-01T16:48:23;4.70;;;2.30;;
5125;SDS011;63008;53.112;8.896;2023-04-01T16:53:08;2.50;;;1.83;;
5125;SDS011;63008;53.112;8.896;2023-04-01T16:55:19;2.67;;;2.47;;
5125;SDS011;63008;53.112;8.896;2023-04-01T17:00:14;3.57;;;2.40;;
5125;SDS011;63008;53.112;8.896;2023-04-01T17:02:34;2.90;;;2.50;;
5125;SDS011;63008;53.112;8.896;2023-04-01T17:11:50;2.60;;;2.40;;
5125;SDS011;63008;53.112;8.896;2023-04-01T17:16:45;3.57;;;2.77;;
5125;SDS011;63008;53.112;8.896;2023-04-01T17:21:14;3.47;;;2.70;;
5125;SDS011;63008;53.112;8.896;2023-04-01T17:23:39;5.70;;;2.70;;
5125;SDS011;63008;53.112;8.896;2023-04-01T17:25:54;2.90;;;2.50;;
5125;SDS011;63008;53.112;8.896;2023-04-01T17:29:05;2.60;;;2.40;;
5125;SDS011;63008;53.112;8.896;2023-04-01T17:30:44;3.20;;;2.97;;
5125;SDS011;63008;53.112;8.896;2023-04-01T17:35:31;7.73;;;3.70;;
5125;SDS011;63008;53.112;8.896;2023-04-01T17:42:49;3.57;;;2.70;;
5125;SDS011;63008;53.112;8.896;2023-04-01T17:45:04;5.87;;;3.40;;
5125;SDS011;63008;53.112;8.896;2023-04-01T17:49:56;3.60;;;3.30;;
5125;SDS011;63008;53.112;8.896;2023-04-01T17:52:16;4.67;;;3.90;;
5125;SDS011;63008;53.112;8.896;2023-04-01T17:54:36;5.30;;;3.70;;
5125;SDS011;63008;53.112;8.896;2023-04-01T18:01:49;3.70;;;3.03;;
5125;SDS011;63008;53.112;8.896;2023-04-01T18:06:26;8.47;;;3.20;;
5125;SDS011;63008;53.112;8.896;2023-04-01T18:08:40;2.87;;;2.60;;
5125;SDS011;63008;53.112;8.896;2023-04-01T18:11:10;5.50;;;3.50;;
5125;SDS011;63008;53.112;8.896;2023-04-01T18:15:46;10.00;;;3.07;;
5125;SDS011;63008;53.112;8.896;2023-04-01T18:22:41;3.57;;;3.03;;
5125;SDS011;63008;53.112;8.896;2023-04-01T18:24:45;3.50;;;3.10;;
5125;SDS011;63008;53.112;8.896;2023-04-01T18:31:19;4.23;;;3.30;;
5125;SDS011;63008;53.112;8.896;2023-04-01T18:33:41;5.67;;;3.37;;
5125;SDS011;63008;53.112;8.896;2023-04-01T18:35:54;3.33;;;3.00;;
5125;SDS011;63008;53.112;8.896;2023-04-01T18:38:11;6.43;;;3.77;;
5125;SDS011;63008;53.112;8.896;2023-04-01T18:42:43;5.73;;;3.50;;
5125;SDS011;63008;53.112;8.896;2023-04-01T18:45:10;4.80;;;4.10;;
5125;SDS011;63008;53.112;8.896;2023-04-01T18:54:42;9.23;;;4.30;;
5125;SDS011;63008;53.112;8.896;2023-04-01T18:56:49;5.47;;;3.57;;